sensor_id;sensor_type;location;lat;lon;timestamp;pressure;altitude;pressure_sealevel;temperature;humidity
66176;BME280;52977;44.816;20.538;2023-04-01T00:01:01;98563.06;;;15.28;61.38
66176;BME280;52977;44.816;20.538;2023-04-01T00:03:29;98529.56;;;15.11;61.44
66176;BME280;52977;44.816;20.538;2023-04-01T00:05:57;98527.63;;;15.15;60.87
66176;BME280;52977;44.816;20.538;2023-04-01T00:08:25;98538.88;;;14.99;61.67
66176;BME280;52977;44.816;20.538;2023-04-01T00:10:52;98565.66;;;15.10;61.98
66176;BME280;52977;44.816;20.538;2023-04-01T00:13:19;98549.38;;;14.86;62.35
66176;BME280;52977;44.816;20.538;2023-04-01T00:15:46;98558.38;;;14.83;62.99
66176;BME280;52977;44.816;20.538;2023-04-01T00:18:12;98520.34;;;14.48;63.41
66176;BME280;52977;44.816;20.538;2023-04-01T00:20:43;98534.44;;;14.46;64.02
66176;BME280;52977;44.816;20.538;2023-04-01T00:23:10;98541.25;;;14.60;63.77
66176;BME280;52977;44.816;20.538;2023-04-01T00:25:36;98562.28;;;14.82;64.07
66176;BME280;52977;44.816;20.538;2023-04-01T00:28:02;98528.03;;;14.69;63.27
66176;BME280;52977;44.816;20.538;2023-04-01T00:30:29;98571.56;;;15.12;63.11
66176;BME280;52977;44.816;20.538;2023-04-01T00:32:55;98571.41;;;14.94;63.48
66176;BME280;52977;44.816;20.538;2023-04-01T00:35:21;98572.03;;;14.76;64.27
66176;BME280;52977;44.816;20.538;2023-04-01T00:37:48;98581.09;;;14.77;64.71
66176;BME280;52977;44.816;20.538;2023-04-01T00:40:42;98575.03;;;15.05;63.79
66176;BME280;52977;44.816;20.538;2023-04-01T00:43:18;98570.88;;;14.77;64.88
66176;BME280;52977;44.816;20.538;2023-04-01T00:45:46;98560.00;;;14.50;65.76
66176;BME280;52977;44.816;20.538;2023-04-01T00:48:28;98544.66;;;14.49;66.15
66176;BME280;52977;44.816;20.538;2023-04-01T00:51:43;98539.16;;;14.46;66.98
66176;BME280;52977;44.816;20.538;2023-04-01T00:54:04;98499.84;;;14.34;66.51
66176;BME280;52977;44.816;20.538;2023-04-01T00:56:36;98492.75;;;14.33;66.53
66176;BME280;52977;44.816;20.538;2023-04-01T00:59:07;98531.53;;;14.66;66.31
66176;BME280;52977;44.816;20.538;2023-04-01T01:01:35;98545.69;;;14.68;66.44
66176;BME280;52977;44.816;20.538;2023-04-01T01:04:01;98526.00;;;14.62;66.23
66176;BME280;52977;44.816;20.538;2023-04-01T01:12:14;98492.63;;;14.60;67.46
66176;BME280;52977;44.816;20.538;2023-04-01T01:20:27;98524.44;;;14.65;67.26
66176;BME280;52977;44.816;20.538;2023-04-01T01:23:19;98524.19;;;14.77;67.28
66176;BME280;52977;44.816;20.538;2023-04-01T01:26:20;98529.81;;;14.92;66.27
66176;BME280;52977;44.816;20.538;2023-04-01T01:37:23;98505.72;;;14.74;67.79
66176;BME280;52977;44.816;20.538;2023-04-01T01:39:55;98484.25;;;14.46;68.17
66176;BME280;52977;44.816;20.538;2023-04-01T01:42:24;98498.78;;;14.88;67.55
66176;BME280;52977;44.816;20.538;2023-04-01T01:44:53;98441.66;;;14.22;68.87
66176;BME280;52977;44.816;20.538;2023-04-01T01:47:22;98485.78;;;14.43;69.77
66176;BME280;52977;44.816;20.538;2023-04-01T01:49:50;98459.63;;;14.15;70.40
66176;BME280;52977;44.816;20.538;2023-04-01T01:52:17;98521.22;;;14.56;70.30
66176;BME280;52977;44.816;20.538;2023-04-01T01:54:51;98433.53;;;13.91;71.39
66176;BME280;52977;44.816;20.538;2023-04-01T01:57:26;98473.13;;;14.31;70.88
66176;BME280;52977;44.816;20.538;2023-04-01T02:00:07;98497.16;;;14.45;71.32
66176;BME280;52977;44.816;20.538;2023-04-01T02:02:42;98495.69;;;14.51;71.51
66176;BME280;52977;44.816;20.538;2023-04-01T02:05:10;98424.34;;;14.17;70.56
66176;BME280;52977;44.816;20.538;2023-04-01T02:07:39;98497.81;;;14.69;70.81
66176;BME280;52977;44.816;20.538;2023-04-01T02:10:06;98428.19;;;14.06;70.91
66176;BME280;52977;44.816;20.538;2023-04-01T02:12:34;98450.91;;;14.06;71.50
66176;BME280;52977;44.816;20.538;2023-04-01T02:15:10;98503.13;;;13.79;74.49
66176;BME280;52977;44.816;20.538;2023-04-01T02:17:42;98467.47;;;13.49;74.48
66176;BME280;52977;44.816;20.538;2023-04-01T02:20:16;98517.84;;;13.98;74.78
66176;BME280;52977;44.816;20.538;2023-04-01T02:22:48;98511.78;;;13.81;76.13
66176;BME280;52977;44.816;20.538;2023-04-01T02:25:18;98514.38;;;14.01;75.48
66176;BME280;52977;44.816;20.538;2023-04-01T02:27:46;98436.63;;;13.90;74.16
66176;BME280;52977;44.816;20.538;2023-04-01T02:30:14;98519.34;;;14.63;73.46
66176;BME280;52977;44.816;20.538;2023-04-01T02:32:41;98529.09;;;14.61;73.71
66176;BME280;52977;44.816;20.538;2023-04-01T02:35:13;98517.53;;;14.41;75.64
66176;BME280;52977;44.816;20.538;2023-04-01T02:37:42;98515.53;;;14.38;75.81
66176;BME280;52977;44.816;20.538;2023-04-01T02:40:10;98406.72;;;13.77;76.01
66176;BME280;52977;44.816;20.538;2023-04-01T02:42:37;98497.03;;;14.31;77.03
66176;BME280;52977;44.816;20.538;2023-04-01T02:45:04;98510.06;;;14.04;80.68
66176;BME280;52977;44.816;20.538;2023-04-01T02:47:31;98483.16;;;13.48;85.32
66176;BME280;52977;44.816;20.538;2023-04-01T02:49:57;98521.69;;;13.63;87.91
66176;BME280;52977;44.816;20.538;2023-04-01T02:52:25;98531.28;;;13.76;87.92
66176;BME280;52977;44.816;20.538;2023-04-01T02:54:52;98511.25;;;13.72;88.16
66176;BME280;52977;44.816;20.538;2023-04-01T02:57:18;98512.19;;;13.83;88.03
66176;BME280;52977;44.816;20.538;2023-04-01T02:59:44;98506.16;;;13.71;91.75
66176;BME280;52977;44.816;20.538;2023-04-01T03:02:11;98425.22;;;13.23;93.64
66176;BME280;52977;44.816;20.538;2023-04-01T03:04:36;98458.41;;;13.75;90.85
66176;BME280;52977;44.816;20.538;2023-04-01T03:07:02;98510.75;;;14.31;90.19
66176;BME280;52977;44.816;20.538;2023-04-01T03:09:31;98516.84;;;14.13;94.35
66176;BME280;52977;44.816;20.538;2023-04-01T03:11:57;98495.34;;;14.19;92.74
66176;BME280;52977;44.816;20.538;2023-04-01T03:14:23;98504.50;;;14.30;92.40
66176;BME280;52977;44.816;20.538;2023-04-01T03:16:50;98513.50;;;14.31;91.94
66176;BME280;52977;44.816;20.538;2023-04-01T03:19:16;98511.47;;;13.90;91.42
66176;BME280;52977;44.816;20.538;2023-04-01T03:21:42;98506.78;;;13.60;96.41
66176;BME280;52977;44.816;20.538;2023-04-01T03:24:08;98490.00;;;13.35;95.93
66176;BME280;52977;44.816;20.538;2023-04-01T03:26:34;98494.88;;;13.22;98.88
66176;BME280;52977;44.816;20.538;2023-04-01T03:29:01;98509.59;;;13.64;97.09
66176;BME280;52977;44.816;20.538;2023-04-01T03:31:27;98515.00;;;13.91;94.60
66176;BME280;52977;44.816;20.538;2023-04-01T03:33:55;98486.47;;;13.95;94.37
66176;BME280;52977;44.816;20.538;2023-04-01T03:36:22;98511.69;;;14.08;94.76
66176;BME280;52977;44.816;20.538;2023-04-01T03:38:47;98492.41;;;14.01;96.05
66176;BME280;52977;44.816;20.538;2023-04-01T03:41:18;98497.09;;;14.00;96.71
66176;BME280;52977;44.816;20.538;2023-04-01T03:43:44;98493.78;;;14.22;95.66
66176;BME280;52977;44.816;20.538;2023-04-01T03:46:10;98386.81;;;13.50;93.67
66176;BME280;52977;44.816;20.538;2023-04-01T03:48:36;98451.91;;;13.91;95.00
66176;BME280;52977;44.816;20.538;2023-04-01T03:51:07;98482.94;;;13.95;96.29
66176;BME280;52977;44.816;20.538;2023-04-01T03:53:33;98482.25;;;13.71;97.73
66176;BME280;52977;44.816;20.538;2023-04-01T03:56:05;98489.09;;;13.84;98.62
66176;BME280;52977;44.816;20.538;2023-04-01T03:58:32;98491.41;;;13.82;97.11
66176;BME280;52977;44.816;20.538;2023-04-01T04:01:01;98487.66;;;13.98;93.70
66176;BME280;52977;44.816;20.538;2023-04-01T04:03:27;98482.97;;;13.98;93.03
66176;BME280;52977;44.816;20.538;2023-04-01T04:05:54;98476.59;;;13.87;93.06
66176;BME280;52977;44.816;20.538;2023-04-01T04:08:22;98482.53;;;13.62;97.08
66176;BME280;52977;44.816;20.538;2023-04-01T04:10:55;98478.81;;;13.78;96.83
66176;BME280;52977;44.816;20.538;2023-04-01T04:13:22;98480.44;;;13.82;95.32
66176;BME280;52977;44.816;20.538;2023-04-01T04:15:55;98486.56;;;14.06;92.60
66176;BME280;52977;44.816;20.538;2023-04-01T04:18:22;98511.09;;;13.92;94.18
66176;BME280;52977;44.816;20.538;2023-04-01T04:20:48;98480.50;;;13.90;94.09
66176;BME280;52977;44.816;20.538;2023-04-01T04:23:18;98428.56;;;13.70;95.12
66176;BME280;52977;44.816;20.538;2023-04-01T04:28:21;98405.03;;;13.35;99.31
66176;BME280;52977;44.816;20.538;2023-04-01T04:30:48;98377.28;;;13.10;100.00
66176;BME280;52977;44.816;20.538;2023-04-01T04:33:15;98443.47;;;13.39;100.00
66176;BME280;52977;44.816;20.538;2023-04-01T04:35:41;98419.16;;;13.37;100.00
66176;BME280;52977;44.816;20.538;2023-04-01T04:38:08;98394.50;;;13.37;100.00
66176;BME280;52977;44.816;20.538;2023-04-01T04:40:39;98437.13;;;13.65;100.00
66176;BME280;52977;44.816;20.538;2023-04-01T04:43:05;98423.22;;;13.20;100.00
66176;BME280;52977;44.816;20.538;2023-04-01T04:45:32;98364.94;;;12.66;100.00
66176;BME280;52977;44.816;20.538;2023-04-01T04:47:58;98411.69;;;13.07;100.00
66176;BME280;52977;44.816;20.538;2023-04-01T04:50:25;98430.56;;;13.12;100.00
66176;BME280;52977;44.816;20.538;2023-04-01T04:52:51;98430.66;;;13.20;100.00
66176;BME280;52977;44.816;20.538;2023-04-01T04:55:19;98437.31;;;13.19;100.00
66176;BME280;52977;44.816;20.538;2023-04-01T04:57:49;98448.97;;;13.15;100.00
66176;BME280;52977;44.816;20.538;2023-04-01T05:00:16;98431.56;;;13.01;100.00
66176;BME280;52977;44.816;20.538;2023-04-01T05:02:55;98430.19;;;12.87;100.00
66176;BME280;52977;44.816;20.538;2023-04-01T05:05:22;98430.84;;;12.77;100.00
66176;BME280;52977;44.816;20.538;2023-04-01T05:07:49;98431.16;;;13.29;100.00
66176;BME280;52977;44.816;20.538;2023-04-01T05:10:15;98372.53;;;12.76;100.00
66176;BME280;52977;44.816;20.538;2023-04-01T05:12:42;98431.13;;;12.98;100.00
66176;BME280;52977;44.816;20.538;2023-04-01T05:15:10;98407.16;;;12.92;100.00
66176;BME280;52977;44.816;20.538;2023-04-01T05:17:37;98409.53;;;12.93;100.00
66176;BME280;52977;44.816;20.538;2023-04-01T05:20:04;98421.47;;;13.05;100.00
66176;BME280;52977;44.816;20.538;2023-04-01T05:22:30;98371.84;;;12.56;100.00
66176;BME280;52977;44.816;20.538;2023-04-01T05:24:56;98326.09;;;12.07;100.00
66176;BME280;52977;44.816;20.538;2023-04-01T05:27:22;98397.44;;;12.44;100.00
66176;BME280;52977;44.816;20.538;2023-04-01T05:29:49;98339.34;;;12.28;100.00
66176;BME280;52977;44.816;20.538;2023-04-01T05:32:35;98398.00;;;12.80;100.00
66176;BME280;52977;44.816;20.538;2023-04-01T05:35:02;98384.38;;;12.57;100.00
66176;BME280;52977;44.816;20.538;2023-04-01T05:37:29;98370.53;;;12.23;100.00
66176;BME280;52977;44.816;20.538;2023-04-01T05:39:55;98348.72;;;12.04;100.00
66176;BME280;52977;44.816;20.538;2023-04-01T05:42:21;98346.34;;;12.02;100.00
66176;BME280;52977;44.816;20.538;2023-04-01T05:44:48;98348.84;;;12.11;100.00
66176;BME280;52977;44.816;20.538;2023-04-01T05:47:43;98339.00;;;12.29;100.00
66176;BME280;52977;44.816;20.538;2023-04-01T05:50:10;98311.47;;;12.19;100.00
66176;BME280;52977;44.816;20.538;2023-04-01T05:52:37;98333.19;;;12.35;100.00
66176;BME280;52977;44.816;20.538;2023-04-01T05:55:04;98322.50;;;12.26;100.00
66176;BME280;52977;44.816;20.538;2023-04-01T05:57:31;98365.31;;;12.64;100.00
66176;BME280;52977;44.816;20.538;2023-04-01T05:59:58;98305.41;;;12.33;100.00
66176;BME280;52977;44.816;20.538;2023-04-01T06:02:24;98343.78;;;12.63;100.00
66176;BME280;52977;44.816;20.538;2023-04-01T06:04:58;98347.09;;;12.49;100.00
66176;BME280;52977;44.816;20.538;2023-04-01T06:07:28;98347.78;;;12.42;100.00
66176;BME280;52977;44.816;20.538;2023-04-01T06:09:55;98373.16;;;12.66;100.00
66176;BME280;52977;44.816;20.538;2023-04-01T06:12:44;98381.53;;;13.04;100.00
66176;BME280;52977;44.816;20.538;2023-04-01T06:35:02;98303.38;;;11.79;100.00
66176;BME280;52977;44.816;20.538;2023-04-01T06:49:22;98306.09;;;12.26;100.00
66176;BME280;52977;44.816;20.538;2023-04-01T06:55:41;98308.25;;;12.40;100.00
66176;BME280;52977;44.816;20.538;2023-04-01T06:58:42;98309.94;;;12.21;100.00
66176;BME280;52977;44.816;20.538;2023-04-01T07:01:16;98278.22;;;11.93;100.00
66176;BME280;52977;44.816;20.538;2023-04-01T07:06:36;98248.13;;;11.70;100.00
66176;BME280;52977;44.816;20.538;2023-04-01T07:09:10;98267.94;;;11.63;100.00
66176;BME280;52977;44.816;20.538;2023-04-01T07:12:16;98298.78;;;11.87;100.00
66176;BME280;52977;44.816;20.538;2023-04-01T07:15:50;98297.97;;;12.06;100.00
66176;BME280;52977;44.816;20.538;2023-04-01T07:24:23;98264.41;;;12.09;100.00
66176;BME280;52977;44.816;20.538;2023-04-01T07:27:01;98222.56;;;11.59;100.00
66176;BME280;52977;44.816;20.538;2023-04-01T07:29:30;98250.88;;;11.93;100.00
66176;BME280;52977;44.816;20.538;2023-04-01T07:35:03;98237.81;;;12.06;100.00
66176;BME280;52977;44.816;20.538;2023-04-01T07:48:35;98228.19;;;12.16;100.00
66176;BME280;52977;44.816;20.538;2023-04-01T07:51:26;98200.63;;;12.32;100.00
66176;BME280;52977;44.816;20.538;2023-04-01T08:05:25;98195.16;;;12.32;100.00
66176;BME280;52977;44.816;20.538;2023-04-01T08:17:22;98241.38;;;12.10;100.00
66176;BME280;52977;44.816;20.538;2023-04-01T08:20:16;98249.69;;;12.18;100.00
66176;BME280;52977;44.816;20.538;2023-04-01T08:22:48;98212.72;;;11.77;100.00
66176;BME280;52977;44.816;20.538;2023-04-01T08:25:32;98258.22;;;12.39;100.00
66176;BME280;52977;44.816;20.538;2023-04-01T08:33:27;98275.41;;;12.40;100.00
66176;BME280;52977;44.816;20.538;2023-04-01T08:36:29;98271.25;;;12.50;100.00
66176;BME280;52977;44.816;20.538;2023-04-01T08:39:23;98238.06;;;11.98;100.00
66176;BME280;52977;44.816;20.538;2023-04-01T08:53:50;98238.59;;;12.34;100.00
66176;BME280;52977;44.816;20.538;2023-04-01T08:59:24;98232.81;;;12.69;100.00
66176;BME280;52977;44.816;20.538;2023-04-01T09:07:54;98235.69;;;12.50;100.00
66176;BME280;52977;44.816;20.538;2023-04-01T09:15:54;98149.00;;;11.73;100.00
66176;BME280;52977;44.816;20.538;2023-04-01T09:24:31;98218.88;;;12.51;100.00
66176;BME280;52977;44.816;20.538;2023-04-01T09:27:27;98219.56;;;12.44;100.00
66176;BME280;52977;44.816;20.538;2023-04-01T09:30:27;98227.78;;;12.44;100.00
66176;BME280;52977;44.816;20.538;2023-04-01T09:41:57;98186.00;;;12.17;100.00
66176;BME280;52977;44.816;20.538;2023-04-01T09:45:04;98185.19;;;12.17;100.00
66176;BME280;52977;44.816;20.538;2023-04-01T09:48:12;98213.38;;;12.21;100.00
66176;BME280;52977;44.816;20.538;2023-04-01T09:53:33;98210.28;;;12.22;100.00
66176;BME280;52977;44.816;20.538;2023-04-01T10:02:39;98202.78;;;11.66;100.00
66176;BME280;52977;44.816;20.538;2023-04-01T10:28:37;98259.03;;;10.30;100.00
66176;BME280;52977;44.816;20.538;2023-04-01T10:40:49;98265.88;;;9.88;100.00
66176;BME280;52977;44.816;20.538;2023-04-01T10:49:37;98274.28;;;9.99;100.00
66176;BME280;52977;44.816;20.538;2023-04-01T11:08:08;98296.09;;;9.83;100.00
66176;BME280;52977;44.816;20.538;2023-04-01T11:17:02;98330.72;;;9.66;100.00
66176;BME280;52977;44.816;20.538;2023-04-01T11:20:04;98327.28;;;9.69;100.00
66176;BME280;52977;44.816;20.538;2023-04-01T11:31:29;98346.47;;;9.73;100.00
66176;BME280;52977;44.816;20.538;2023-04-01T11:40:51;98377.63;;;9.88;100.00
66176;BME280;52977;44.816;20.538;2023-04-01T11:52:54;98399.69;;;9.99;100.00
66176;BME280;52977;44.816;20.538;2023-04-01T12:12:10;98437.66;;;9.91;100.00
66176;BME280;52977;44.816;20.538;2023-04-01T12:14:52;98450.03;;;9.89;100.00
66176;BME280;52977;44.816;20.538;2023-04-01T12:19:58;98449.34;;;9.92;100.00
66176;BME280;52977;44.816;20.538;2023-04-01T12:22:48;98456.09;;;9.82;100.00
66176;BME280;52977;44.816;20.538;2023-04-01T12:28:51;98466.81;;;10.03;100.00
66176;BME280;52977;44.816;20.538;2023-04-01T12:37:13;98480.09;;;10.21;100.00
66176;BME280;52977;44.816;20.538;2023-04-01T12:48:08;98498.22;;;10.13;100.00
66176;BME280;52977;44.816;20.538;2023-04-01T12:56:42;98493.75;;;10.21;100.00
66176;BME280;52977;44.816;20.538;2023-04-01T13:00:23;98510.03;;;10.17;100.00
66176;BME280;52977;44.816;20.538;2023-04-01T13:02:48;98520.34;;;9.96;100.00
66176;BME280;52977;44.816;20.538;2023-04-01T13:05:42;98510.81;;;9.89;100.00
66176;BME280;52977;44.816;20.538;2023-04-01T13:19:55;98480.16;;;9.64;100.00
66176;BME280;52977;44.816;20.538;2023-04-01T13:27:57;98490.31;;;9.80;100.00
66176;BME280;52977;44.816;20.538;2023-04-01T13:30:47;98518.94;;;10.30;100.00
66176;BME280;52977;44.816;20.538;2023-04-01T13:36:30;98549.00;;;9.89;100.00
66176;BME280;52977;44.816;20.538;2023-04-01T13:44:48;98555.34;;;9.94;100.00
66176;BME280;52977;44.816;20.538;2023-04-01T13:47:26;98563.50;;;9.94;100.00
66176;BME280;52977;44.816;20.538;2023-04-01T13:50:28;98568.91;;;10.06;100.00
66176;BME280;52977;44.816;20.538;2023-04-01T13:53:13;98577.38;;;10.17;100.00
66176;BME280;52977;44.816;20.538;2023-04-01T13:58:47;98586.13;;;10.22;100.00
66176;BME280;52977;44.816;20.538;2023-04-01T14:01:39;98596.72;;;10.12;100.00
66176;BME280;52977;44.816;20.538;2023-04-01T14:15:18;98598.50;;;10.20;100.00
66176;BME280;52977;44.816;20.538;2023-04-01T14:28:33;98608.75;;;10.23;100.00
66176;BME280;52977;44.816;20.538;2023-04-01T14:31:41;98606.69;;;10.20;100.00
66176;BME280;52977;44.816;20.538;2023-04-01T14:34:26;98612.69;;;10.25;100.00
66176;BME280;52977;44.816;20.538;2023-04-01T14:37:44;98616.13;;;10.22;100.00
66176;BME280;52977;44.816;20.538;2023-04-01T14:50:54;98573.41;;;10.14;100.00
66176;BME280;52977;44.816;20.538;2023-04-01T14:53:28;98607.69;;;10.27;100.00
66176;BME280;52977;44.816;20.538;2023-04-01T14:55:59;98613.31;;;10.19;100.00
66176;BME280;52977;44.816;20.538;2023-04-01T14:58:45;98627.06;;;10.10;100.00
66176;BME280;52977;44.816;20.538;2023-04-01T15:01:34;98607.84;;;10.19;100.00
66176;BME280;52977;44.816;20.538;2023-04-01T15:04:19;98620.78;;;10.34;100.00
66176;BME280;52977;44.816;20.538;2023-04-01T15:17:42;98622.38;;;10.80;100.00
66176;BME280;52977;44.816;20.538;2023-04-01T15:25:31;98616.66;;;11.01;100.00
66176;BME280;52977;44.816;20.538;2023-04-01T15:33:35;98621.88;;;11.06;100.00
66176;BME280;52977;44.816;20.538;2023-04-01T16:01:45;98660.28;;;10.97;100.00
66176;BME280;52977;44.816;20.538;2023-04-01T16:12:46;98634.38;;;10.91;100.00
66176;BME280;52977;44.816;20.538;2023-04-01T16:15:26;98648.22;;;10.98;100.00
66176;BME280;52977;44.816;20.538;2023-04-01T16:20:44;98672.81;;;10.98;100.00
66176;BME280;52977;44.816;20.538;2023-04-01T16:26:06;98659.75;;;10.91;100.00
66176;BME280;52977;44.816;20.538;2023-04-01T16:28:42;98666.47;;;10.94;100.00
66176;BME280;52977;44.816;20.538;2023-04-01T16:36:54;98673.06;;;10.93;100.00
66176;BME280;52977;44.816;20.538;2023-04-01T16:39:49;98670.22;;;10.89;100.00
66176;BME280;52977;44.816;20.538;2023-04-01T16:42:38;98671.91;;;10.94;100.00
66176;BME280;52977;44.816;20.538;2023-04-01T16:47:59;98658.13;;;10.74;100.00
66176;BME280;52977;44.816;20.538;2023-04-01T16:50:30;98637.78;;;10.72;100.00
66176;BME280;52977;44.816;20.538;2023-04-01T16:55:56;98682.97;;;10.85;100.00
66176;BME280;52977;44.816;20.538;2023-04-01T16:58:41;98684.91;;;10.85;100.00
66176;BME280;52977;44.816;20.538;2023-04-01T17:01:40;98696.38;;;10.90;100.00
66176;BME280;52977;44.816;20.538;2023-04-01T17:06:54;98704.97;;;10.76;100.00
66176;BME280;52977;44.816;20.538;2023-04-01T17:17:32;98697.91;;;10.75;100.00
66176;BME280;52977;44.816;20.538;2023-04-01T17:20:09;98719.47;;;10.93;100.00
66176;BME280;52977;44.816;20.538;2023-04-01T17:22:44;98721.34;;;11.05;100.00
66176;BME280;52977;44.816;20.538;2023-04-01T17:28:18;98721.16;;;10.98;100.00
66176;BME280;52977;44.816;20.538;2023-04-01T17:36:09;98721.34;;;11.05;100.00
66176;BME280;52977;44.816;20.538;2023-04-01T17:49:45;98738.78;;;11.16;100.00
66176;BME280;52977;44.816;20.538;2023-04-01T17:52:27;98738.47;;;11.18;100.00
66176;BME280;52977;44.816;20.538;2023-04-01T18:00:40;98737.59;;;11.14;100.00
66176;BME280;52977;44.816;20.538;2023-04-01T18:06:59;98737.22;;;11.15;100.00
66176;BME280;52977;44.816;20.538;2023-04-01T18:09:45;98738.72;;;11.13;100.00
66176;BME280;52977;44.816;20.538;2023-04-01T18:15:13;98715.69;;;10.98;100.00
66176;BME280;52977;44.816;20.538;2023-04-01T18:17:55;98741.00;;;11.10;100.00
66176;BME280;52977;44.816;20.538;2023-04-01T18:20:43;98742.59;;;11.11;100.00
66176;BME280;52977;44.816;20.538;2023-04-01T18:23:29;98645.03;;;10.52;100.00
66176;BME280;52977;44.816;20.538;2023-04-01T18:26:08;98741.22;;;11.18;100.00
66176;BME280;52977;44.816;20.538;2023-04-01T18:28:45;98742.06;;;11.22;100.00
66176;BME280;52977;44.816;20.538;2023-04-01T18:31:42;98638.63;;;10.60;100.00
66176;BME280;52977;44.816;20.538;2023-04-01T18:36:37;98758.47;;;11.22;100.00
66176;BME280;52977;44.816;20.538;2023-04-01T18:39:16;98752.91;;;11.18;100.00
66176;BME280;52977;44.816;20.538;2023-04-01T18:44:53;98747.84;;;11.04;100.00
66176;BME280;52977;44.816;20.538;2023-04-01T18:47:41;98719.63;;;10.84;100.00
66176;BME280;52977;44.816;20.538;2023-04-01T18:53:18;98689.72;;;10.75;100.00
66176;BME280;52977;44.816;20.538;2023-04-01T18:58:35;98752.91;;;11.18;100.00
66176;BME280;52977;44.816;20.538;2023-04-01T19:10:26;98705.72;;;10.89;100.00
66176;BME280;52977;44.816;20.538;2023-04-01T19:13:00;98741.38;;;11.25;100.00
66176;BME280;52977;44.816;20.538;2023-04-01T19:21:21;98711.34;;;10.97;100.00
66176;BME280;52977;44.816;20.538;2023-04-01T19:34:38;98762.53;;;11.28;100.00
66176;BME280;52977;44.816;20.538;2023-04-01T19:37:26;98749.72;;;11.16;100.00
66176;BME280;52977;44.816;20.538;2023-04-01T19:40:08;98769.13;;;11.27;100.00
66176;BME280;52977;44.816;20.538;2023-04-01T19:42:56;98302.88;;;8.23;99.40
66176;BME280;52977;44.816;20.538;2023-04-01T19:48:33;98740.75;;;11.16;99.37
66176;BME280;52977;44.816;20.538;2023-04-01T19:51:09;98761.84;;;11.31;98.30
66176;BME280;52977;44.816;20.538;2023-04-01T19:53:50;98691.66;;;10.75;100.00
66176;BME280;52977;44.816;20.538;2023-04-01T19:56:22;98758.06;;;11.07;100.00
66176;BME280;52977;44.816;20.538;2023-04-01T19:58:55;98765.91;;;11.09;100.00
66176;BME280;52977;44.816;20.538;2023-04-01T20:01:27;98756.06;;;11.04;100.00
66176;BME280;52977;44.816;20.538;2023-04-01T20:04:08;98704.59;;;10.62;100.00
66176;BME280;52977;44.816;20.538;2023-04-01T20:06:49;98754.22;;;11.08;100.00
66176;BME280;52977;44.816;20.538;2023-04-01T20:14:46;98762.84;;;11.10;100.00
66176;BME280;52977;44.816;20.538;2023-04-01T20:17:24;98710.19;;;10.82;100.00
66176;BME280;52977;44.816;20.538;2023-04-01T20:25:19;98677.28;;;10.62;100.00
66176;BME280;52977;44.816;20.538;2023-04-01T20:27:58;98749.09;;;11.07;99.14
66176;BME280;52977;44.816;20.538;2023-04-01T20:33:57;98757.38;;;11.10;99.20
66176;BME280;52977;44.816;20.538;2023-04-01T21:41:50;98797.16;;;10.96;95.41
66176;BME280;52977;44.816;20.538;2023-04-01T21:47:12;98808.88;;;10.96;95.37
66176;BME280;52977;44.816;20.538;2023-04-01T21:52:51;98800.25;;;10.94;94.20
66176;BME280;52977;44.816;20.538;2023-04-01T22:09:38;98795.50;;;10.78;92.75
66176;BME280;52977;44.816;20.538;2023-04-01T22:15:03;98810.59;;;10.88;91.94
66176;BME280;52977;44.816;20.538;2023-04-01T22:17:37;98805.13;;;10.88;91.68
66176;BME280;52977;44.816;20.538;2023-04-01T22:22:52;98805.13;;;10.88;90.13
66176;BME280;52977;44.816;20.538;2023-04-01T22:28:25;98800.84;;;10.75;90.47
66176;BME280;52977;44.816;20.538;2023-04-01T22:31:01;98808.91;;;10.84;89.54
66176;BME280;52977;44.816;20.538;2023-04-01T22:33:50;98815.06;;;10.81;89.01
66176;BME280;52977;44.816;20.538;2023-04-01T22:50:35;98799.81;;;10.80;86.98
66176;BME280;52977;44.816;20.538;2023-04-01T22:55:53;98823.25;;;10.81;87.45
66176;BME280;52977;44.816;20.538;2023-04-01T22:58:50;98821.19;;;10.90;87.20
66176;BME280;52977;44.816;20.538;2023-04-01T23:01:24;98831.31;;;10.89;87.43
66176;BME280;52977;44.816;20.538;2023-04-01T23:03:52;98806.56;;;10.70;87.73
66176;BME280;52977;44.816;20.538;2023-04-01T23:06:24;98830.94;;;10.91;87.65
66176;BME280;52977;44.816;20.538;2023-04-01T23:09:05;98814.59;;;10.78;87.69
66176;BME280;52977;44.816;20.538;2023-04-01T23:11:39;98825.41;;;10.87;88.11
66176;BME280;52977;44.816;20.538;2023-04-01T23:14:39;98793.59;;;10.67;88.14
66176;BME280;52977;44.816;20.538;2023-04-01T23:20:15;98788.97;;;10.55;88.36
66176;BME280;52977;44.816;20.538;2023-04-01T23:23:08;98823.81;;;10.86;87.91
66176;BME280;52977;44.816;20.538;2023-04-01T23:26:12;98834.38;;;10.88;88.08
66176;BME280;52977;44.816;20.538;2023-04-01T23:31:03;98822.56;;;10.71;87.75
66176;BME280;52977;44.816;20.538;2023-04-01T23:33:30;98799.19;;;10.58;87.95
66176;BME280;52977;44.816;20.538;2023-04-01T23:35:57;98833.13;;;10.85;87.67
66176;BME280;52977;44.816;20.538;2023-04-01T23:38:36;98838.59;;;10.85;88.06
66176;BME280;52977;44.816;20.538;2023-04-01T23:41:04;98839.75;;;10.84;88.09
66176;BME280;52977;44.816;20.538;2023-04-01T23:43:34;98846.34;;;10.83;87.82
66176;BME280;52977;44.816;20.538;2023-04-01T23:46:03;98829.28;;;10.74;86.99
66176;BME280;52977;44.816;20.538;2023-04-01T23:48:37;98837.03;;;10.84;87.68
66176;BME280;52977;44.816;20.538;2023-04-01T23:54:04;98805.78;;;10.57;87.58
66176;BME280;52977;44.816;20.538;2023-04-01T23:56:45;98786.69;;;10.45;87.78
66176;BME280;52977;44.816;20.538;2023-04-01T23:59:23;98824.97;;;10.73;87.71
